Akk, Virginia
Current Conditions -  °F | °C
As of 10:55 PM on Saturday 24 Jan 2015 (Local Time) from KFYJ Reporting Station
Clear Clear  
Wind Chill: 38°   Ceiling: Unl
Heat Index: 38°   Visibility: 10mi
Dew Point: 30°   Wind: 3mph
Humidity: 75%   Direction: 260°W
Pressure: 29.71"   Gusts: NA
Location:  37.4383°N, 76.5764°W
Report Text: KFYJ 250355Z AUTO 26003KT 10SM CLR 03/M01 A2971 RMK AO2 T00311010
Loading
Personal Weather Stations






























Interactive Weather Map New forecast layout! Learn more

10-Day Weather Forecast

Advertisements
Track Severe Weather on mobile